METAR Data
IDs: Format: Raw Decoded Include TAF

Data at: 1215 UTC 21 Sep 2018

METAR for:KFPK (Charotte/Beach Fld, MI, US)
Text:KFPK 211155Z AUTO 22010G15KT 10SM SCT075 SCT080 25/19 A2979 RMK AO2 70024 T02450190 10247 20238
Temperature: 24.5°C ( 76°F)
Dewpoint: 19.0°C ( 66°F) [RH = 71%]
Pressure (altimeter):29.79 inches Hg (1008.9 mb)
Winds:from the SW (220 degrees) at 12 MPH (10 knots; 5.1 m/s) gusting to 17 MPH (15 knots; 7.7 m/s)
Visibility:10 or more sm (16+ km)
Ceiling:at least 12,000 feet AGL
Clouds: scattered clouds at 7500 feet AGL, scattered clouds at 8000 feet AGL
QC Flag:automated observation with no human augmentation

TAF for:KFPK (Charotte/Beach Fld, MI, US)
Text:No data found

METAR for:KLAN (Lansing/Capital City, MI, US)
Text:KLAN 211153Z 22015G25KT 10SM FEW050 SCT065 25/19 A2979 RMK AO2 LTG DSNT SW SLP080 70127 T02500194 10256 20244 55008
Temperature: 25.0°C ( 77°F)
Dewpoint: 19.4°C ( 67°F) [RH = 71%]
Pressure (altimeter):29.79 inches Hg (1008.9 mb) [Sea level pressure: 1008.0 mb]
Winds:from the SW (220 degrees) at 17 MPH (15 knots; 7.7 m/s) gusting to 29 MPH (25 knots; 12.9 m/s)
Visibility:10 or more sm (16+ km)
Ceiling:at least 12,000 feet AGL
Clouds: few clouds at 5000 feet AGL, scattered clouds at 6500 feet AGL

TAF for:KLAN (Lansing/Capital City, MI, US) issued at 1137 UTC 21 Sep 2018
Text:KLAN 211137Z 2112/2212 19012KT P6SM VCSH SCT040 BKN100 WS020/23050KT
Forecast period:1200 to 1300 UTC 21 September 2018
Forecast type:FROM: standard forecast or significant change
Winds:from the S (190 degrees) at 14 MPH (12 knots; 6.2 m/s)
Visibility:6 or more sm (10+ km)
Ceiling:10000 feet AGL
Clouds: scattered clouds at 4000 feet AGL, broken clouds at 10000 feet AGL
Weather:VCSH (showers in vicinity)
Wind Shear:230 degrees at 50 knots at 2000 feet AGL
Text:FM211300 21015G25KT P6SM VCSH SCT025 BKN040
Forecast period:1300 to 1500 UTC 21 September 2018
Forecast type:FROM: standard forecast or significant change
Winds:from the SSW (210 degrees) at 17 MPH (15 knots; 7.7 m/s) gusting to 29 MPH (25 knots; 12.9 m/s)
Visibility:6 or more sm (10+ km)
Ceiling:4000 feet AGL
Clouds: scattered clouds at 2500 feet AGL, broken clouds at 4000 feet AGL
Weather:VCSH (showers in vicinity)
Text:FM211500 25020G30KT P6SM SCT015 BKN025
Forecast period:1500 to 2100 UTC 21 September 2018
Forecast type:FROM: standard forecast or significant change
Winds:from the WSW (250 degrees) at 23 MPH (20 knots; 10.3 m/s) gusting to 34 MPH (30 knots; 15.4 m/s)
Visibility:6 or more sm (10+ km)
Ceiling:2500 feet AGL
Clouds: scattered clouds at 1500 feet AGL, broken clouds at 2500 feet AGL
Text:FM212100 29018G28KT P6SM BKN025
Forecast period:2100 UTC 21 September 2018 to 1200 UTC 22 September 2018
Forecast type:FROM: standard forecast or significant change
Winds:from the WNW (290 degrees) at 21 MPH (18 knots; 9.3 m/s) gusting to 32 MPH (28 knots; 14.4 m/s)
Visibility:6 or more sm (10+ km)
Ceiling:2500 feet AGL
Clouds: broken clouds at 2500 feet AGL